createdAt,value
2018-04-09T09:55:29.296Z,44.05
2018-04-09T09:57:56.774Z,44.10
2018-04-09T10:00:29.945Z,43.89
2018-04-09T10:02:57.640Z,43.47
2018-04-09T10:05:33.463Z,43.31
2018-04-09T10:08:01.018Z,43.11
2018-04-09T10:10:28.495Z,42.78
2018-04-09T10:12:55.981Z,42.71
2018-04-09T10:15:23.442Z,42.44
2018-04-09T10:17:50.898Z,42.79
2018-04-09T10:20:18.424Z,43.19
2018-04-09T10:22:45.879Z,43.06
2018-04-09T10:25:13.425Z,43.13
2018-04-09T10:27:40.918Z,42.99
2018-04-09T10:30:08.482Z,42.49
2018-04-09T10:32:35.946Z,41.78
2018-04-09T10:35:03.464Z,41.89
2018-04-09T10:37:31.590Z,41.35
2018-04-09T10:39:59.094Z,41.70
2018-04-09T10:42:26.625Z,41.90
2018-04-09T10:44:54.091Z,40.95
2018-04-09T10:47:21.592Z,40.87
2018-04-09T10:49:49.071Z,40.60
2018-04-09T10:52:16.633Z,39.88
2018-04-09T10:54:44.269Z,39.71
2018-04-09T10:57:11.732Z,40.32
2018-04-09T10:59:39.257Z,41.11
2018-04-09T11:02:06.851Z,41.66
2018-04-09T11:04:34.324Z,41.09
2018-04-09T11:07:01.823Z,40.78
2018-04-09T11:09:29.296Z,40.19
2018-04-09T11:11:56.791Z,39.70
2018-04-09T11:14:24.289Z,39.90
2018-04-09T11:16:51.805Z,40.20
2018-04-09T11:19:19.357Z,40.68
2018-04-09T11:21:46.858Z,40.57
2018-04-09T11:24:14.396Z,40.03
2018-04-09T11:26:42.265Z,40.25
2018-04-09T11:29:09.738Z,40.31
2018-04-09T11:31:37.302Z,40.22
2018-04-09T11:34:04.812Z,39.62
2018-04-09T11:36:32.290Z,39.40
2018-04-09T11:38:59.766Z,39.45
2018-04-09T11:41:27.320Z,39.75
2018-04-09T11:43:54.802Z,39.44
2018-04-09T11:46:22.253Z,38.79
2018-04-09T11:48:49.784Z,38.36
2018-04-09T11:51:17.225Z,38.12
2018-04-09T11:53:44.720Z,38.19
2018-04-09T11:56:12.254Z,38.65
2018-04-09T11:58:39.734Z,38.85
2018-04-09T12:01:07.222Z,38.23
2018-04-09T12:03:34.684Z,38.18
2018-04-09T12:06:02.237Z,37.97
2018-04-09T12:08:29.732Z,38.63
2018-04-09T12:10:57.244Z,38.85
2018-04-09T12:13:24.799Z,38.79
2018-04-09T12:15:52.274Z,39.05
2018-04-09T12:18:19.746Z,39.39
2018-04-09T12:20:47.237Z,39.11
2018-04-09T12:23:14.755Z,38.61
2018-04-09T12:25:42.213Z,38.32
2018-04-09T12:28:09.700Z,38.44
2018-04-09T12:30:37.152Z,38.60
2018-04-09T12:33:04.621Z,38.28
2018-04-09T12:35:32.099Z,37.71
2018-04-09T12:37:59.644Z,37.44
2018-04-09T12:40:27.141Z,37.14
2018-04-09T12:42:54.624Z,37.57
2018-04-09T12:45:22.100Z,37.71
2018-04-09T12:47:49.576Z,37.33
2018-04-09T12:50:17.066Z,37.08
2018-04-09T12:52:44.535Z,37.09
2018-04-09T12:55:12.082Z,36.77
2018-04-09T12:57:39.576Z,36.59
2018-04-09T13:00:07.140Z,36.84
2018-04-09T13:02:34.591Z,37.18
2018-04-09T13:05:02.073Z,36.82
2018-04-09T13:07:29.539Z,36.65
2018-04-09T13:09:56.994Z,36.72
2018-04-09T13:12:24.524Z,36.67
2018-04-09T13:14:52.019Z,36.60
2018-04-09T13:17:19.547Z,36.86
2018-04-09T13:19:47.207Z,37.15
2018-04-09T13:22:14.691Z,37.27
2018-04-09T13:24:42.163Z,37.06
2018-04-09T13:27:09.619Z,36.70
2018-04-09T13:29:37.108Z,36.43
2018-04-09T13:32:04.566Z,36.75
2018-04-09T13:34:32.035Z,36.67
2018-04-09T13:36:59.517Z,36.44
2018-04-09T13:39:26.999Z,36.40
2018-04-09T13:41:54.472Z,36.26
2018-04-09T13:44:21.948Z,36.05
2018-04-09T13:46:49.411Z,35.67
2018-04-09T13:49:16.895Z,35.51
2018-04-09T13:51:44.386Z,35.09
2018-04-09T13:54:11.872Z,35.32
2018-04-09T13:56:39.370Z,35.35
2018-04-09T13:59:06.886Z,35.68
2018-04-09T14:01:34.345Z,35.61
2018-04-09T14:04:01.848Z,35.88
2018-04-09T14:06:29.384Z,35.69
2018-04-09T14:08:57.338Z,36.04
2018-04-09T14:11:24.832Z,36.11
2018-04-09T14:13:52.312Z,35.91
2018-04-09T14:16:19.999Z,36.84
2018-04-09T14:18:47.446Z,37.01
2018-04-09T14:21:14.897Z,36.99
2018-04-09T14:23:42.421Z,36.86
2018-04-09T14:26:09.980Z,36.88
2018-04-09T14:28:37.452Z,36.86
2018-04-09T14:31:04.955Z,37.32
2018-04-09T14:33:32.410Z,37.59
2018-04-09T14:35:59.925Z,37.85
2018-04-09T14:38:27.400Z,37.52
2018-04-09T14:40:54.872Z,37.23
2018-04-09T14:43:22.449Z,37.44
2018-04-09T14:45:49.949Z,37.43
2018-04-09T14:48:17.456Z,37.58
2018-04-09T14:50:44.922Z,37.51
2018-04-09T14:53:12.514Z,37.58
2018-04-09T14:55:40.023Z,37.51
2018-04-09T14:58:07.629Z,37.70
2018-04-09T15:00:35.096Z,37.82
2018-04-09T15:03:02.551Z,37.62
2018-04-09T15:05:30.042Z,37.17
2018-04-09T15:07:57.524Z,37.17
2018-04-09T15:10:24.984Z,37.07
2018-04-09T15:12:52.444Z,37.46
2018-04-09T15:15:19.930Z,37.71
2018-04-09T15:17:47.406Z,37.42
2018-04-09T15:20:14.862Z,37.53
2018-04-09T15:22:42.364Z,37.67
2018-04-09T15:25:09.827Z,37.63
2018-04-09T15:27:37.286Z,37.49
2018-04-09T15:30:04.817Z,37.39
2018-04-09T15:32:32.275Z,37.09
2018-04-09T15:34:59.745Z,36.76
2018-04-09T15:37:27.215Z,37.03
2018-04-09T15:39:54.723Z,37.53
2018-04-09T15:42:22.272Z,36.96
2018-04-09T15:44:49.763Z,36.89
2018-04-09T15:47:17.297Z,36.32
2018-04-09T15:49:44.820Z,34.97
2018-04-09T15:52:12.321Z,35.15
2018-04-09T15:54:39.837Z,34.66
2018-04-09T15:57:07.305Z,34.94
2018-04-09T15:59:34.915Z,35.70
2018-04-09T16:02:02.420Z,36.28
2018-04-09T16:04:29.899Z,36.41
2018-04-09T16:06:57.399Z,36.36
2018-04-09T16:09:24.925Z,36.50
2018-04-09T16:11:52.389Z,36.29
2018-04-09T16:14:19.930Z,36.75
2018-04-09T16:16:47.431Z,36.75
2018-04-09T16:19:14.928Z,37.18
2018-04-09T16:21:42.381Z,37.19
2018-04-09T16:24:09.859Z,37.42
2018-04-09T16:26:37.318Z,37.46
2018-04-09T16:29:04.776Z,37.54
2018-04-09T16:31:32.253Z,37.54
2018-04-09T16:33:59.696Z,37.83
2018-04-09T16:36:27.160Z,38.04
2018-04-09T16:38:54.651Z,37.71
2018-04-09T16:41:22.098Z,37.47
2018-04-09T16:43:49.576Z,37.38
2018-04-09T16:46:17.075Z,37.64
2018-04-09T16:48:44.561Z,38.03
2018-04-09T16:51:12.003Z,38.27
2018-04-09T16:53:39.495Z,38.44
2018-04-09T16:56:06.948Z,38.66
2018-04-09T16:58:34.400Z,38.78
2018-04-09T17:01:01.872Z,38.96
2018-04-09T17:03:29.333Z,39.20
2018-04-09T17:05:56.782Z,39.38
2018-04-09T17:08:24.281Z,39.64
2018-04-09T17:10:51.849Z,39.85
2018-04-09T17:13:19.303Z,40.04
2018-04-09T17:15:46.764Z,40.21
2018-04-09T17:18:14.252Z,40.48
2018-04-09T17:20:41.704Z,40.67
2018-04-09T17:23:09.167Z,40.85
2018-04-09T17:25:36.651Z,40.96
2018-04-09T17:28:04.119Z,41.19
2018-04-09T17:30:31.593Z,41.51
2018-04-09T17:32:59.058Z,41.61
2018-04-09T17:35:26.541Z,41.80
2018-04-09T17:37:54.041Z,41.97
2018-04-09T17:40:21.605Z,42.29
2018-04-09T17:42:49.027Z,42.51
2018-04-09T17:45:16.558Z,42.76
2018-04-09T17:47:44.117Z,43.06
2018-04-09T17:50:11.675Z,43.44
2018-04-09T17:52:39.167Z,43.72
2018-04-09T17:55:06.998Z,43.90
2018-04-09T17:57:34.562Z,44.20
2018-04-09T18:00:02.074Z,44.44
2018-04-09T18:02:29.577Z,44.65
2018-04-09T18:04:57.109Z,44.77
2018-04-09T18:07:24.592Z,44.71
2018-04-09T18:09:52.153Z,45.11
2018-04-09T18:12:19.582Z,45.12
2018-04-09T18:14:47.068Z,45.39
2018-04-09T18:17:14.557Z,45.53
2018-04-09T18:19:42.012Z,45.60
2018-04-09T18:22:09.470Z,45.78
2018-04-09T18:24:37.048Z,45.77
2018-04-09T18:27:04.531Z,46.01
2018-04-09T18:29:32.136Z,46.12
2018-04-09T18:31:59.622Z,46.21
2018-04-09T18:34:27.076Z,46.16
2018-04-09T18:36:54.532Z,46.35
2018-04-09T18:39:22.008Z,46.55
2018-04-09T18:41:49.513Z,46.63
2018-04-09T18:44:16.967Z,46.68
2018-04-09T18:46:44.521Z,46.89
2018-04-09T18:49:12.033Z,46.90
2018-04-09T18:51:39.540Z,47.05
2018-04-09T18:54:07.056Z,47.28
2018-04-09T18:56:34.529Z,47.10
2018-04-09T18:59:02.016Z,47.15
2018-04-09T19:01:29.473Z,47.12
2018-04-09T19:03:56.938Z,47.43
2018-04-09T19:06:24.497Z,47.60
2018-04-09T19:08:51.962Z,47.74
2018-04-09T19:11:19.424Z,47.85
2018-04-09T19:13:46.912Z,47.99
2018-04-09T19:16:14.367Z,48.10
2018-04-09T19:18:41.825Z,48.19
2018-04-09T19:21:09.340Z,48.31
2018-04-09T19:23:36.804Z,48.32
2018-04-09T19:26:04.337Z,48.48
2018-04-09T19:28:31.824Z,48.64
2018-04-09T19:30:59.290Z,48.56
2018-04-09T19:33:26.761Z,48.64
2018-04-09T19:35:59.958Z,48.83
2018-04-09T19:38:33.160Z,49.12
2018-04-09T19:41:00.648Z,49.31
2018-04-09T19:43:28.115Z,49.37
2018-04-09T19:45:55.588Z,49.52
2018-04-09T19:48:23.066Z,49.74
2018-04-09T19:50:50.567Z,49.78
2018-04-09T19:53:18.258Z,50.03
2018-04-09T19:55:45.725Z,49.98
2018-04-09T19:58:13.245Z,49.98
2018-04-09T20:00:40.697Z,50.00
2018-04-09T20:03:08.159Z,50.14
2018-04-09T20:05:35.627Z,50.09
2018-04-09T20:08:03.178Z,50.06
2018-04-09T20:10:30.762Z,49.89
2018-04-09T20:12:58.227Z,49.71
2018-04-09T20:15:25.763Z,49.66
2018-04-09T20:17:53.316Z,49.53
2018-04-09T20:20:20.763Z,49.25
2018-04-09T20:22:48.244Z,49.27
2018-04-09T20:25:15.707Z,49.14
2018-04-09T20:27:43.208Z,49.18
2018-04-09T20:30:10.661Z,49.30
2018-04-09T20:32:38.125Z,49.37
2018-04-09T20:35:05.753Z,49.41
2018-04-09T20:37:33.277Z,49.52
2018-04-09T20:40:00.745Z,49.63
2018-04-09T20:42:28.234Z,49.79
2018-04-09T20:44:55.785Z,50.01
2018-04-09T20:47:23.297Z,50.23
2018-04-09T20:49:50.784Z,50.54
2018-04-09T20:52:18.241Z,50.87
2018-04-09T20:54:45.697Z,51.13
2018-04-09T20:57:13.181Z,51.90
2018-04-09T20:59:40.680Z,52.14
2018-04-09T21:02:08.139Z,52.79
2018-04-09T21:04:35.623Z,52.98
2018-04-09T21:07:03.096Z,52.68
2018-04-09T21:09:30.548Z,53.40
2018-04-09T21:11:58.068Z,53.36
2018-04-09T21:14:25.682Z,53.82
2018-04-09T21:16:53.182Z,53.94
2018-04-09T21:19:20.636Z,54.18
2018-04-09T21:21:48.096Z,54.37
2018-04-09T21:24:15.664Z,54.65
2018-04-09T21:26:43.135Z,55.22
2018-04-09T21:29:10.596Z,55.14
2018-04-09T21:31:38.138Z,55.24
2018-04-09T21:34:05.642Z,55.61
2018-04-09T21:36:33.117Z,55.90
2018-04-09T21:39:00.589Z,56.21
2018-04-09T21:41:28.087Z,56.36
2018-04-09T21:43:55.587Z,56.63
2018-04-09T21:46:23.134Z,56.75
2018-04-09T21:48:50.599Z,57.00
2018-04-09T21:51:18.084Z,57.29
2018-04-09T21:53:45.560Z,57.32
2018-04-09T21:56:13.028Z,57.56
2018-04-09T21:58:40.504Z,57.89
2018-04-09T22:01:07.963Z,58.02
2018-04-09T22:03:35.424Z,58.20
2018-04-09T22:06:02.907Z,58.58
2018-04-09T22:08:30.386Z,58.52
2018-04-09T22:10:57.844Z,58.82
2018-04-09T22:13:25.304Z,59.01
2018-04-09T22:15:52.879Z,58.89
2018-04-09T22:18:20.350Z,59.07
2018-04-09T22:20:47.803Z,59.44
2018-04-09T22:23:15.375Z,59.28
2018-04-09T22:25:42.847Z,59.65
2018-04-09T22:28:10.373Z,59.58
2018-04-09T22:30:37.825Z,59.86
2018-04-09T22:33:05.285Z,60.02
2018-04-09T22:35:32.745Z,60.32
2018-04-09T22:38:00.208Z,60.36
2018-04-09T22:40:27.697Z,60.45
2018-04-09T22:42:55.222Z,60.53
2018-04-09T22:45:22.776Z,60.64
2018-04-09T22:47:50.252Z,60.78
2018-04-09T22:50:17.790Z,60.91
2018-04-09T22:52:45.350Z,61.10
2018-04-09T22:55:12.852Z,61.30
2018-04-09T22:57:40.312Z,61.47
2018-04-09T23:00:07.800Z,61.99
2018-04-09T23:02:35.256Z,62.01
2018-04-09T23:05:02.755Z,61.88
2018-04-09T23:07:30.247Z,61.96
2018-04-09T23:09:57.713Z,62.06
2018-04-09T23:12:25.170Z,62.10
2018-04-09T23:14:52.655Z,62.20
2018-04-09T23:17:20.171Z,62.23
2018-04-09T23:19:47.637Z,62.32
2018-04-09T23:22:15.112Z,62.62
2018-04-09T23:24:42.568Z,62.63
2018-04-09T23:27:10.115Z,62.51
2018-04-09T23:29:37.552Z,62.61
2018-04-09T23:32:05.185Z,62.56
2018-04-09T23:34:32.744Z,62.58
2018-04-09T23:37:00.307Z,62.60
2018-04-09T23:39:27.873Z,62.60
2018-04-09T23:41:55.360Z,62.60
2018-04-09T23:44:22.911Z,62.85
2018-04-09T23:46:50.431Z,62.77
2018-04-09T23:49:17.893Z,62.82
2018-04-09T23:51:45.362Z,63.00
2018-04-09T23:54:13.052Z,63.32
2018-04-09T23:56:40.591Z,63.29
2018-04-09T23:59:08.122Z,63.20
